sensor_id;sensor_type;location;lat;lon;timestamp;pressure;altitude;pressure_sealevel;temperature
68012;BMP180;54794;48.348;7.878;2022-12-10T00:01:49;97904.00;;;3.50
68012;BMP180;54794;48.348;7.878;2022-12-10T00:04:16;97917.00;;;3.50
68012;BMP180;54794;48.348;7.878;2022-12-10T00:06:44;97916.00;;;3.60
68012;BMP180;54794;48.348;7.878;2022-12-10T00:09:14;97907.00;;;3.60
68012;BMP180;54794;48.348;7.878;2022-12-10T00:11:42;97916.00;;;3.40
68012;BMP180;54794;48.348;7.878;2022-12-10T00:14:12;97911.00;;;3.50
68012;BMP180;54794;48.348;7.878;2022-12-10T00:16:39;97912.00;;;3.40
68012;BMP180;54794;48.348;7.878;2022-12-10T00:19:06;97916.00;;;3.40
68012;BMP180;54794;48.348;7.878;2022-12-10T00:21:36;97930.00;;;3.50
68012;BMP180;54794;48.348;7.878;2022-12-10T00:24:04;97932.00;;;3.50
68012;BMP180;54794;48.348;7.878;2022-12-10T00:26:36;97924.00;;;3.50
68012;BMP180;54794;48.348;7.878;2022-12-10T00:29:05;97929.00;;;3.50
68012;BMP180;54794;48.348;7.878;2022-12-10T00:31:37;97933.00;;;3.50
68012;BMP180;54794;48.348;7.878;2022-12-10T00:34:08;97930.00;;;3.50
68012;BMP180;54794;48.348;7.878;2022-12-10T00:36:40;97940.00;;;3.30
68012;BMP180;54794;48.348;7.878;2022-12-10T00:39:11;97944.00;;;3.40
68012;BMP180;54794;48.348;7.878;2022-12-10T00:41:39;97931.00;;;3.50
68012;BMP180;54794;48.348;7.878;2022-12-10T00:44:06;97927.00;;;3.60
68012;BMP180;54794;48.348;7.878;2022-12-10T00:46:33;97928.00;;;3.50
68012;BMP180;54794;48.348;7.878;2022-12-10T00:49:00;97927.00;;;3.50
68012;BMP180;54794;48.348;7.878;2022-12-10T00:51:28;97916.00;;;3.30
68012;BMP180;54794;48.348;7.878;2022-12-10T00:53:57;97907.00;;;3.40
68012;BMP180;54794;48.348;7.878;2022-12-10T00:56:28;97909.00;;;3.50
68012;BMP180;54794;48.348;7.878;2022-12-10T00:58:56;97906.00;;;3.60
68012;BMP180;54794;48.348;7.878;2022-12-10T01:01:26;97902.00;;;3.40
68012;BMP180;54794;48.348;7.878;2022-12-10T01:03:58;97905.00;;;3.40
68012;BMP180;54794;48.348;7.878;2022-12-10T01:06:40;97910.00;;;3.40
68012;BMP180;54794;48.348;7.878;2022-12-10T01:09:11;97903.00;;;3.40
68012;BMP180;54794;48.348;7.878;2022-12-10T01:11:42;97911.00;;;3.20
68012;BMP180;54794;48.348;7.878;2022-12-10T01:14:13;97899.00;;;3.10
68012;BMP180;54794;48.348;7.878;2022-12-10T01:16:40;97898.00;;;3.30
68012;BMP180;54794;48.348;7.878;2022-12-10T01:19:08;97895.00;;;3.40
68012;BMP180;54794;48.348;7.878;2022-12-10T01:21:35;97899.00;;;3.40
68012;BMP180;54794;48.348;7.878;2022-12-10T01:24:03;97901.00;;;3.20
68012;BMP180;54794;48.348;7.878;2022-12-10T01:26:33;97907.00;;;3.00
68012;BMP180;54794;48.348;7.878;2022-12-10T01:29:02;97906.00;;;3.30
68012;BMP180;54794;48.348;7.878;2022-12-10T01:31:35;97927.00;;;3.40
68012;BMP180;54794;48.348;7.878;2022-12-10T01:34:05;97923.00;;;3.40
68012;BMP180;54794;48.348;7.878;2022-12-10T01:36:39;97932.00;;;3.10
68012;BMP180;54794;48.348;7.878;2022-12-10T01:39:09;97933.00;;;3.40
68012;BMP180;54794;48.348;7.878;2022-12-10T01:41:42;97941.00;;;3.50
68012;BMP180;54794;48.348;7.878;2022-12-10T01:46:38;97952.00;;;3.40
68012;BMP180;54794;48.348;7.878;2022-12-10T01:49:11;97964.00;;;3.50
68012;BMP180;54794;48.348;7.878;2022-12-10T01:51:41;97964.00;;;3.50
68012;BMP180;54794;48.348;7.878;2022-12-10T01:54:14;97952.00;;;3.50
68012;BMP180;54794;48.348;7.878;2022-12-10T01:56:48;97961.00;;;3.60
68012;BMP180;54794;48.348;7.878;2022-12-10T01:59:17;97960.00;;;3.40
68012;BMP180;54794;48.348;7.878;2022-12-10T02:05:27;97973.00;;;3.20
68012;BMP180;54794;48.348;7.878;2022-12-10T02:08:18;97967.00;;;3.10
68012;BMP180;54794;48.348;7.878;2022-12-10T02:13:41;97964.00;;;3.40
68012;BMP180;54794;48.348;7.878;2022-12-10T02:16:42;97974.00;;;2.80
68012;BMP180;54794;48.348;7.878;2022-12-10T02:21:53;97970.00;;;2.60
68012;BMP180;54794;48.348;7.878;2022-12-10T02:24:29;97964.00;;;2.90
68012;BMP180;54794;48.348;7.878;2022-12-10T02:27:23;97958.00;;;3.30
68012;BMP180;54794;48.348;7.878;2022-12-10T02:29:55;97965.00;;;3.30
68012;BMP180;54794;48.348;7.878;2022-12-10T02:32:30;97968.00;;;3.40
68012;BMP180;54794;48.348;7.878;2022-12-10T02:35:04;97969.00;;;3.50
68012;BMP180;54794;48.348;7.878;2022-12-10T02:37:39;97975.00;;;2.90
68012;BMP180;54794;48.348;7.878;2022-12-10T02:40:18;97976.00;;;3.10
68012;BMP180;54794;48.348;7.878;2022-12-10T02:42:49;97969.00;;;3.10
68012;BMP180;54794;48.348;7.878;2022-12-10T02:45:20;97972.00;;;3.40
68012;BMP180;54794;48.348;7.878;2022-12-10T02:47:49;97969.00;;;3.50
68012;BMP180;54794;48.348;7.878;2022-12-10T02:50:19;97966.00;;;3.50
68012;BMP180;54794;48.348;7.878;2022-12-10T02:52:46;97969.00;;;3.50
68012;BMP180;54794;48.348;7.878;2022-12-10T02:55:14;97964.00;;;3.50
68012;BMP180;54794;48.348;7.878;2022-12-10T02:58:44;97965.00;;;3.50
68012;BMP180;54794;48.348;7.878;2022-12-10T03:01:07;97964.00;;;3.50
68012;BMP180;54794;48.348;7.878;2022-12-10T03:03:59;97955.00;;;3.50
68012;BMP180;54794;48.348;7.878;2022-12-10T03:06:36;97959.00;;;3.40
68012;BMP180;54794;48.348;7.878;2022-12-10T03:09:19;97958.00;;;3.40
68012;BMP180;54794;48.348;7.878;2022-12-10T03:11:49;97966.00;;;3.30
68012;BMP180;54794;48.348;7.878;2022-12-10T03:14:28;97970.00;;;3.10
68012;BMP180;54794;48.348;7.878;2022-12-10T03:16:59;97963.00;;;3.40
68012;BMP180;54794;48.348;7.878;2022-12-10T03:19:41;97955.00;;;3.50
68012;BMP180;54794;48.348;7.878;2022-12-10T03:22:12;97963.00;;;3.50
68012;BMP180;54794;48.348;7.878;2022-12-10T03:24:42;97956.00;;;3.50
68012;BMP180;54794;48.348;7.878;2022-12-10T03:27:12;97957.00;;;3.30
68012;BMP180;54794;48.348;7.878;2022-12-10T03:29:51;97969.00;;;3.50
68012;BMP180;54794;48.348;7.878;2022-12-10T03:32:22;97956.00;;;3.50
68012;BMP180;54794;48.348;7.878;2022-12-10T03:34:53;97966.00;;;3.40
68012;BMP180;54794;48.348;7.878;2022-12-10T03:37:23;97965.00;;;3.50
68012;BMP180;54794;48.348;7.878;2022-12-10T03:39:51;97962.00;;;3.60
68012;BMP180;54794;48.348;7.878;2022-12-10T03:42:18;97963.00;;;3.60
68012;BMP180;54794;48.348;7.878;2022-12-10T03:44:48;97958.00;;;3.60
68012;BMP180;54794;48.348;7.878;2022-12-10T03:47:16;97973.00;;;3.50
68012;BMP180;54794;48.348;7.878;2022-12-10T03:49:43;97979.00;;;3.50
68012;BMP180;54794;48.348;7.878;2022-12-10T03:52:11;97961.00;;;3.50
68012;BMP180;54794;48.348;7.878;2022-12-10T03:54:38;97963.00;;;3.50
68012;BMP180;54794;48.348;7.878;2022-12-10T03:57:05;97960.00;;;3.40
68012;BMP180;54794;48.348;7.878;2022-12-10T03:59:32;97962.00;;;3.40
68012;BMP180;54794;48.348;7.878;2022-12-10T04:01:59;97965.00;;;3.50
68012;BMP180;54794;48.348;7.878;2022-12-10T04:04:26;97965.00;;;3.60
68012;BMP180;54794;48.348;7.878;2022-12-10T04:06:53;97955.00;;;3.30
68012;BMP180;54794;48.348;7.878;2022-12-10T04:09:20;97949.00;;;3.40
68012;BMP180;54794;48.348;7.878;2022-12-10T04:11:47;97963.00;;;3.30
68012;BMP180;54794;48.348;7.878;2022-12-10T04:14:14;97959.00;;;3.10
68012;BMP180;54794;48.348;7.878;2022-12-10T04:17:00;97958.00;;;3.30
68012;BMP180;54794;48.348;7.878;2022-12-10T04:19:27;97951.00;;;3.30
68012;BMP180;54794;48.348;7.878;2022-12-10T04:21:54;97958.00;;;3.30
68012;BMP180;54794;48.348;7.878;2022-12-10T04:24:39;97948.00;;;3.50
68012;BMP180;54794;48.348;7.878;2022-12-10T04:27:32;97942.00;;;3.60
68012;BMP180;54794;48.348;7.878;2022-12-10T04:30:00;97944.00;;;3.50
68012;BMP180;54794;48.348;7.878;2022-12-10T04:32:29;97950.00;;;3.50
68012;BMP180;54794;48.348;7.878;2022-12-10T04:34:56;97945.00;;;3.60
68012;BMP180;54794;48.348;7.878;2022-12-10T04:37:26;97951.00;;;3.50
68012;BMP180;54794;48.348;7.878;2022-12-10T04:39:53;97944.00;;;3.70
68012;BMP180;54794;48.348;7.878;2022-12-10T04:42:21;97946.00;;;3.60
68012;BMP180;54794;48.348;7.878;2022-12-10T04:44:49;97949.00;;;3.50
68012;BMP180;54794;48.348;7.878;2022-12-10T04:47:16;97950.00;;;3.60
68012;BMP180;54794;48.348;7.878;2022-12-10T04:49:43;97953.00;;;3.40
68012;BMP180;54794;48.348;7.878;2022-12-10T04:52:13;97949.00;;;3.30
68012;BMP180;54794;48.348;7.878;2022-12-10T04:54:43;97948.00;;;3.40
68012;BMP180;54794;48.348;7.878;2022-12-10T04:57:11;97954.00;;;3.40
68012;BMP180;54794;48.348;7.878;2022-12-10T04:59:38;97949.00;;;3.40
68012;BMP180;54794;48.348;7.878;2022-12-10T05:02:05;97957.00;;;3.50
68012;BMP180;54794;48.348;7.878;2022-12-10T05:04:32;97961.00;;;3.50
68012;BMP180;54794;48.348;7.878;2022-12-10T05:07:00;97965.00;;;3.50
68012;BMP180;54794;48.348;7.878;2022-12-10T05:09:27;97964.00;;;3.50
68012;BMP180;54794;48.348;7.878;2022-12-10T05:11:54;97970.00;;;3.70
68012;BMP180;54794;48.348;7.878;2022-12-10T05:14:21;97964.00;;;3.60
68012;BMP180;54794;48.348;7.878;2022-12-10T05:16:50;97971.00;;;3.60
68012;BMP180;54794;48.348;7.878;2022-12-10T05:19:18;97972.00;;;3.60
68012;BMP180;54794;48.348;7.878;2022-12-10T05:21:49;97978.00;;;3.60
68012;BMP180;54794;48.348;7.878;2022-12-10T05:24:35;97982.00;;;3.50
68012;BMP180;54794;48.348;7.878;2022-12-10T05:27:02;97982.00;;;3.40
68012;BMP180;54794;48.348;7.878;2022-12-10T05:29:29;97984.00;;;3.50
68012;BMP180;54794;48.348;7.878;2022-12-10T05:31:56;97974.00;;;3.60
68012;BMP180;54794;48.348;7.878;2022-12-10T05:34:23;97967.00;;;3.50
68012;BMP180;54794;48.348;7.878;2022-12-10T05:36:50;97966.00;;;3.60
68012;BMP180;54794;48.348;7.878;2022-12-10T05:39:17;97979.00;;;3.50
68012;BMP180;54794;48.348;7.878;2022-12-10T05:41:43;97984.00;;;3.40
68012;BMP180;54794;48.348;7.878;2022-12-10T05:44:12;97982.00;;;3.50
68012;BMP180;54794;48.348;7.878;2022-12-10T05:46:39;97987.00;;;3.50
68012;BMP180;54794;48.348;7.878;2022-12-10T05:49:06;97989.00;;;3.50
68012;BMP180;54794;48.348;7.878;2022-12-10T05:51:36;97989.00;;;3.40
68012;BMP180;54794;48.348;7.878;2022-12-10T05:54:05;98002.00;;;3.20
68012;BMP180;54794;48.348;7.878;2022-12-10T05:56:34;98001.00;;;3.40
68012;BMP180;54794;48.348;7.878;2022-12-10T05:59:03;98000.00;;;3.50
68012;BMP180;54794;48.348;7.878;2022-12-10T06:01:34;98000.00;;;3.40
68012;BMP180;54794;48.348;7.878;2022-12-10T06:04:03;98003.00;;;3.50
68012;BMP180;54794;48.348;7.878;2022-12-10T06:06:36;98005.00;;;3.60
68012;BMP180;54794;48.348;7.878;2022-12-10T06:09:06;98017.00;;;3.40
68012;BMP180;54794;48.348;7.878;2022-12-10T06:11:34;98013.00;;;3.50
68012;BMP180;54794;48.348;7.878;2022-12-10T06:14:01;98024.00;;;3.30
68012;BMP180;54794;48.348;7.878;2022-12-10T06:16:29;98040.00;;;3.40
68012;BMP180;54794;48.348;7.878;2022-12-10T06:18:57;98043.00;;;3.40
68012;BMP180;54794;48.348;7.878;2022-12-10T06:21:24;98032.00;;;3.50
68012;BMP180;54794;48.348;7.878;2022-12-10T06:23:52;98037.00;;;3.50
68012;BMP180;54794;48.348;7.878;2022-12-10T06:26:23;98040.00;;;3.50
68012;BMP180;54794;48.348;7.878;2022-12-10T06:28:52;98047.00;;;3.40
68012;BMP180;54794;48.348;7.878;2022-12-10T06:31:21;98053.00;;;3.50
68012;BMP180;54794;48.348;7.878;2022-12-10T06:33:49;98050.00;;;3.50
68012;BMP180;54794;48.348;7.878;2022-12-10T06:36:17;98048.00;;;3.50
68012;BMP180;54794;48.348;7.878;2022-12-10T06:38:46;98054.00;;;3.50
68012;BMP180;54794;48.348;7.878;2022-12-10T06:41:15;98059.00;;;3.40
68012;BMP180;54794;48.348;7.878;2022-12-10T06:43:42;98056.00;;;3.50
68012;BMP180;54794;48.348;7.878;2022-12-10T06:46:13;98049.00;;;3.40
68012;BMP180;54794;48.348;7.878;2022-12-10T06:48:41;98063.00;;;3.50
68012;BMP180;54794;48.348;7.878;2022-12-10T06:51:11;98059.00;;;3.30
68012;BMP180;54794;48.348;7.878;2022-12-10T06:53:40;98053.00;;;3.40
68012;BMP180;54794;48.348;7.878;2022-12-10T06:56:12;98059.00;;;3.40
68012;BMP180;54794;48.348;7.878;2022-12-10T06:58:39;98078.00;;;3.50
68012;BMP180;54794;48.348;7.878;2022-12-10T07:01:15;98073.00;;;3.50
68012;BMP180;54794;48.348;7.878;2022-12-10T07:03:43;98075.00;;;3.40
68012;BMP180;54794;48.348;7.878;2022-12-10T07:06:11;98080.00;;;3.50
68012;BMP180;54794;48.348;7.878;2022-12-10T07:08:38;98086.00;;;3.50
68012;BMP180;54794;48.348;7.878;2022-12-10T07:11:09;98090.00;;;3.60
68012;BMP180;54794;48.348;7.878;2022-12-10T07:13:37;98085.00;;;3.50
68012;BMP180;54794;48.348;7.878;2022-12-10T07:16:20;98094.00;;;3.40
68012;BMP180;54794;48.348;7.878;2022-12-10T07:18:48;98076.00;;;3.50
68012;BMP180;54794;48.348;7.878;2022-12-10T07:21:26;98098.00;;;3.40
68012;BMP180;54794;48.348;7.878;2022-12-10T07:23:56;98091.00;;;3.50
68012;BMP180;54794;48.348;7.878;2022-12-10T07:26:28;98099.00;;;3.50
68012;BMP180;54794;48.348;7.878;2022-12-10T07:28:55;98094.00;;;3.30
68012;BMP180;54794;48.348;7.878;2022-12-10T07:31:22;98094.00;;;3.40
68012;BMP180;54794;48.348;7.878;2022-12-10T07:33:52;98102.00;;;3.40
68012;BMP180;54794;48.348;7.878;2022-12-10T07:36:21;98106.00;;;3.40
68012;BMP180;54794;48.348;7.878;2022-12-10T07:38:53;98094.00;;;3.40
68012;BMP180;54794;48.348;7.878;2022-12-10T07:41:24;98091.00;;;3.30
68012;BMP180;54794;48.348;7.878;2022-12-10T07:43:51;98103.00;;;3.40
68012;BMP180;54794;48.348;7.878;2022-12-10T07:46:38;98098.00;;;3.40
68012;BMP180;54794;48.348;7.878;2022-12-10T07:49:05;98113.00;;;3.40
68012;BMP180;54794;48.348;7.878;2022-12-10T07:51:32;98116.00;;;3.30
68012;BMP180;54794;48.348;7.878;2022-12-10T07:53:59;98112.00;;;3.40
68012;BMP180;54794;48.348;7.878;2022-12-10T07:56:26;98109.00;;;3.30
68012;BMP180;54794;48.348;7.878;2022-12-10T07:58:59;98110.00;;;3.10
68012;BMP180;54794;48.348;7.878;2022-12-10T08:01:26;98120.00;;;3.30
68012;BMP180;54794;48.348;7.878;2022-12-10T08:03:55;98121.00;;;3.30
68012;BMP180;54794;48.348;7.878;2022-12-10T08:06:25;98123.00;;;3.40
68012;BMP180;54794;48.348;7.878;2022-12-10T08:08:54;98125.00;;;3.30
68012;BMP180;54794;48.348;7.878;2022-12-10T08:11:22;98137.00;;;3.40
68012;BMP180;54794;48.348;7.878;2022-12-10T08:13:50;98125.00;;;3.30
68012;BMP180;54794;48.348;7.878;2022-12-10T08:16:25;98134.00;;;3.40
68012;BMP180;54794;48.348;7.878;2022-12-10T08:18:59;98132.00;;;3.40
68012;BMP180;54794;48.348;7.878;2022-12-10T08:21:30;98129.00;;;3.40
68012;BMP180;54794;48.348;7.878;2022-12-10T08:23:57;98127.00;;;3.50
68012;BMP180;54794;48.348;7.878;2022-12-10T08:26:27;98132.00;;;3.40
68012;BMP180;54794;48.348;7.878;2022-12-10T08:28:55;98140.00;;;3.40
68012;BMP180;54794;48.348;7.878;2022-12-10T08:31:24;98141.00;;;3.40
68012;BMP180;54794;48.348;7.878;2022-12-10T08:33:51;98131.00;;;3.40
68012;BMP180;54794;48.348;7.878;2022-12-10T08:36:19;98139.00;;;3.50
68012;BMP180;54794;48.348;7.878;2022-12-10T08:38:46;98130.00;;;3.30
68012;BMP180;54794;48.348;7.878;2022-12-10T08:41:21;98149.00;;;3.50
68012;BMP180;54794;48.348;7.878;2022-12-10T08:43:56;98159.00;;;3.30
68012;BMP180;54794;48.348;7.878;2022-12-10T08:46:23;98156.00;;;3.20
68012;BMP180;54794;48.348;7.878;2022-12-10T08:48:51;98161.00;;;3.30
68012;BMP180;54794;48.348;7.878;2022-12-10T08:51:19;98160.00;;;3.50
68012;BMP180;54794;48.348;7.878;2022-12-10T08:53:46;98157.00;;;3.50
68012;BMP180;54794;48.348;7.878;2022-12-10T08:56:13;98162.00;;;3.50
68012;BMP180;54794;48.348;7.878;2022-12-10T08:58:40;98171.00;;;3.40
68012;BMP180;54794;48.348;7.878;2022-12-10T09:01:11;98172.00;;;3.40
68012;BMP180;54794;48.348;7.878;2022-12-10T09:03:38;98169.00;;;3.40
68012;BMP180;54794;48.348;7.878;2022-12-10T09:06:09;98171.00;;;3.40
68012;BMP180;54794;48.348;7.878;2022-12-10T09:08:36;98172.00;;;3.40
68012;BMP180;54794;48.348;7.878;2022-12-10T09:11:10;98178.00;;;3.40
68012;BMP180;54794;48.348;7.878;2022-12-10T09:13:37;98179.00;;;3.40
68012;BMP180;54794;48.348;7.878;2022-12-10T09:16:04;98175.00;;;3.40
68012;BMP180;54794;48.348;7.878;2022-12-10T09:18:32;98181.00;;;3.50
68012;BMP180;54794;48.348;7.878;2022-12-10T09:20:59;98189.00;;;3.40
68012;BMP180;54794;48.348;7.878;2022-12-10T09:23:26;98190.00;;;3.40
68012;BMP180;54794;48.348;7.878;2022-12-10T09:25:52;98199.00;;;3.30
68012;BMP180;54794;48.348;7.878;2022-12-10T09:28:19;98199.00;;;3.30
68012;BMP180;54794;48.348;7.878;2022-12-10T09:30:56;98196.00;;;3.30
68012;BMP180;54794;48.348;7.878;2022-12-10T09:33:24;98202.00;;;3.40
68012;BMP180;54794;48.348;7.878;2022-12-10T09:35:51;98213.00;;;3.30
68012;BMP180;54794;48.348;7.878;2022-12-10T09:38:18;98206.00;;;3.40
68012;BMP180;54794;48.348;7.878;2022-12-10T09:41:01;98214.00;;;3.30
68012;BMP180;54794;48.348;7.878;2022-12-10T09:46:59;98211.00;;;3.50
68012;BMP180;54794;48.348;7.878;2022-12-10T09:49:38;98216.00;;;3.60
68012;BMP180;54794;48.348;7.878;2022-12-10T09:52:13;98207.00;;;3.60
68012;BMP180;54794;48.348;7.878;2022-12-10T09:55:12;98222.00;;;3.30
68012;BMP180;54794;48.348;7.878;2022-12-10T09:57:44;98212.00;;;3.40
68012;BMP180;54794;48.348;7.878;2022-12-10T10:02:49;98207.00;;;3.40
68012;BMP180;54794;48.348;7.878;2022-12-10T10:05:24;98204.00;;;3.50
68012;BMP180;54794;48.348;7.878;2022-12-10T10:07:59;98211.00;;;3.50
68012;BMP180;54794;48.348;7.878;2022-12-10T10:10:31;98207.00;;;3.40
68012;BMP180;54794;48.348;7.878;2022-12-10T10:16:16;98207.00;;;3.30
68012;BMP180;54794;48.348;7.878;2022-12-10T10:19:09;98209.00;;;3.30
68012;BMP180;54794;48.348;7.878;2022-12-10T10:21:51;98206.00;;;3.50
68012;BMP180;54794;48.348;7.878;2022-12-10T10:24:26;98209.00;;;3.40
68012;BMP180;54794;48.348;7.878;2022-12-10T10:27:01;98212.00;;;3.50
68012;BMP180;54794;48.348;7.878;2022-12-10T10:29:34;98219.00;;;3.50
68012;BMP180;54794;48.348;7.878;2022-12-10T10:32:16;98220.00;;;3.10
68012;BMP180;54794;48.348;7.878;2022-12-10T10:34:46;98222.00;;;3.30
68012;BMP180;54794;48.348;7.878;2022-12-10T10:37:26;98224.00;;;3.30
68012;BMP180;54794;48.348;7.878;2022-12-10T10:39:57;98228.00;;;3.00
68012;BMP180;54794;48.348;7.878;2022-12-10T10:42:42;98231.00;;;3.30
68012;BMP180;54794;48.348;7.878;2022-12-10T10:48:45;98225.00;;;3.30
68012;BMP180;54794;48.348;7.878;2022-12-10T10:56:24;98219.00;;;3.20
68012;BMP180;54794;48.348;7.878;2022-12-10T10:59:02;98219.00;;;3.20
68012;BMP180;54794;48.348;7.878;2022-12-10T11:01:51;98226.00;;;3.20
68012;BMP180;54794;48.348;7.878;2022-12-10T11:04:36;98236.00;;;3.10
68012;BMP180;54794;48.348;7.878;2022-12-10T11:07:19;98238.00;;;3.20
68012;BMP180;54794;48.348;7.878;2022-12-10T11:09:48;98236.00;;;3.20
68012;BMP180;54794;48.348;7.878;2022-12-10T11:12:38;98225.00;;;3.40
68012;BMP180;54794;48.348;7.878;2022-12-10T11:17:54;98240.00;;;3.50
68012;BMP180;54794;48.348;7.878;2022-12-10T11:22:59;98248.00;;;3.40
68012;BMP180;54794;48.348;7.878;2022-12-10T11:34:20;98250.00;;;3.40
68012;BMP180;54794;48.348;7.878;2022-12-10T11:50:53;98248.00;;;3.30
68012;BMP180;54794;48.348;7.878;2022-12-10T11:59:39;98263.00;;;3.20
68012;BMP180;54794;48.348;7.878;2022-12-10T12:03:06;98265.00;;;3.30
68012;BMP180;54794;48.348;7.878;2022-12-10T12:09:01;98263.00;;;3.10
68012;BMP180;54794;48.348;7.878;2022-12-10T12:20:56;98280.00;;;3.40
68012;BMP180;54794;48.348;7.878;2022-12-10T12:26:49;98291.00;;;3.30
68012;BMP180;54794;48.348;7.878;2022-12-10T12:29:44;98295.00;;;3.30
68012;BMP180;54794;48.348;7.878;2022-12-10T12:40:50;98301.00;;;3.20
68012;BMP180;54794;48.348;7.878;2022-12-10T12:43:25;98298.00;;;3.20
68012;BMP180;54794;48.348;7.878;2022-12-10T12:45:55;98303.00;;;3.20
68012;BMP180;54794;48.348;7.878;2022-12-10T12:53:40;98297.00;;;3.30
68012;BMP180;54794;48.348;7.878;2022-12-10T12:56:26;98307.00;;;3.40
68012;BMP180;54794;48.348;7.878;2022-12-10T13:02:22;98309.00;;;3.30
68012;BMP180;54794;48.348;7.878;2022-12-10T13:04:53;98318.00;;;3.30
68012;BMP180;54794;48.348;7.878;2022-12-10T13:09:52;98323.00;;;3.20
68012;BMP180;54794;48.348;7.878;2022-12-10T13:15:39;98331.00;;;3.50
68012;BMP180;54794;48.348;7.878;2022-12-10T13:20:50;98340.00;;;3.50
68012;BMP180;54794;48.348;7.878;2022-12-10T13:34:06;98350.00;;;3.30
68012;BMP180;54794;48.348;7.878;2022-12-10T13:39:45;98348.00;;;3.30
68012;BMP180;54794;48.348;7.878;2022-12-10T13:45:02;98352.00;;;3.30
68012;BMP180;54794;48.348;7.878;2022-12-10T13:50:41;98357.00;;;3.20
68012;BMP180;54794;48.348;7.878;2022-12-10T13:53:24;98374.00;;;3.10
68012;BMP180;54794;48.348;7.878;2022-12-10T13:56:32;98381.00;;;3.10
68012;BMP180;54794;48.348;7.878;2022-12-10T13:59:20;98376.00;;;3.10
68012;BMP180;54794;48.348;7.878;2022-12-10T14:08:16;98386.00;;;3.20
68012;BMP180;54794;48.348;7.878;2022-12-10T14:10:45;98389.00;;;3.30
68012;BMP180;54794;48.348;7.878;2022-12-10T14:13:17;98399.00;;;3.10
68012;BMP180;54794;48.348;7.878;2022-12-10T14:16:19;98401.00;;;3.30
68012;BMP180;54794;48.348;7.878;2022-12-10T14:34:54;98424.00;;;3.10
68012;BMP180;54794;48.348;7.878;2022-12-10T14:37:28;98425.00;;;3.20
68012;BMP180;54794;48.348;7.878;2022-12-10T14:39:56;98424.00;;;2.90
68012;BMP180;54794;48.348;7.878;2022-12-10T14:42:23;98424.00;;;3.30
68012;BMP180;54794;48.348;7.878;2022-12-10T14:44:58;98428.00;;;3.20
68012;BMP180;54794;48.348;7.878;2022-12-10T14:47:26;98424.00;;;3.20
68012;BMP180;54794;48.348;7.878;2022-12-10T14:50:00;98426.00;;;3.40
68012;BMP180;54794;48.348;7.878;2022-12-10T14:52:39;98422.00;;;3.40
68012;BMP180;54794;48.348;7.878;2022-12-10T14:55:17;98420.00;;;3.40
68012;BMP180;54794;48.348;7.878;2022-12-10T14:57:55;98434.00;;;3.40
68012;BMP180;54794;48.348;7.878;2022-12-10T15:00:23;98439.00;;;3.50
68012;BMP180;54794;48.348;7.878;2022-12-10T15:02:58;98440.00;;;3.40
68012;BMP180;54794;48.348;7.878;2022-12-10T15:05:30;98442.00;;;3.40
68012;BMP180;54794;48.348;7.878;2022-12-10T15:08:01;98448.00;;;3.40
68012;BMP180;54794;48.348;7.878;2022-12-10T15:10:42;98446.00;;;3.50
68012;BMP180;54794;48.348;7.878;2022-12-10T15:13:24;98444.00;;;3.60
68012;BMP180;54794;48.348;7.878;2022-12-10T15:15:53;98449.00;;;3.60
68012;BMP180;54794;48.348;7.878;2022-12-10T15:18:46;98457.00;;;3.60
68012;BMP180;54794;48.348;7.878;2022-12-10T15:21:20;98460.00;;;3.50
68012;BMP180;54794;48.348;7.878;2022-12-10T15:23:49;98460.00;;;3.60
68012;BMP180;54794;48.348;7.878;2022-12-10T15:26:24;98448.00;;;3.60
68012;BMP180;54794;48.348;7.878;2022-12-10T15:32:21;98460.00;;;3.30
68012;BMP180;54794;48.348;7.878;2022-12-10T15:35:04;98466.00;;;3.40
68012;BMP180;54794;48.348;7.878;2022-12-10T15:37:38;98462.00;;;3.60
68012;BMP180;54794;48.348;7.878;2022-12-10T15:40:29;98463.00;;;3.50
68012;BMP180;54794;48.348;7.878;2022-12-10T15:43:27;98463.00;;;3.50
68012;BMP180;54794;48.348;7.878;2022-12-10T15:45:57;98469.00;;;3.50
68012;BMP180;54794;48.348;7.878;2022-12-10T15:48:27;98472.00;;;3.40
68012;BMP180;54794;48.348;7.878;2022-12-10T15:51:00;98473.00;;;3.50
68012;BMP180;54794;48.348;7.878;2022-12-10T15:53:35;98470.00;;;3.60
68012;BMP180;54794;48.348;7.878;2022-12-10T15:56:03;98482.00;;;3.50
68012;BMP180;54794;48.348;7.878;2022-12-10T15:58:30;98478.00;;;3.70
68012;BMP180;54794;48.348;7.878;2022-12-10T16:00:57;98483.00;;;3.60
68012;BMP180;54794;48.348;7.878;2022-12-10T16:03:26;98484.00;;;3.70
68012;BMP180;54794;48.348;7.878;2022-12-10T16:05:54;98484.00;;;3.60
68012;BMP180;54794;48.348;7.878;2022-12-10T16:08:26;98484.00;;;3.50
68012;BMP180;54794;48.348;7.878;2022-12-10T16:11:10;98491.00;;;3.50
68012;BMP180;54794;48.348;7.878;2022-12-10T16:13:39;98491.00;;;3.60
68012;BMP180;54794;48.348;7.878;2022-12-10T16:16:10;98487.00;;;3.60
68012;BMP180;54794;48.348;7.878;2022-12-10T16:18:37;98482.00;;;3.70
68012;BMP180;54794;48.348;7.878;2022-12-10T16:21:05;98478.00;;;3.60
68012;BMP180;54794;48.348;7.878;2022-12-10T16:23:35;98480.00;;;3.60
68012;BMP180;54794;48.348;7.878;2022-12-10T16:26:09;98488.00;;;3.60
68012;BMP180;54794;48.348;7.878;2022-12-10T16:28:38;98493.00;;;3.60
68012;BMP180;54794;48.348;7.878;2022-12-10T16:31:10;98491.00;;;3.60
68012;BMP180;54794;48.348;7.878;2022-12-10T16:33:37;98484.00;;;3.60
68012;BMP180;54794;48.348;7.878;2022-12-10T16:36:04;98486.00;;;3.60
68012;BMP180;54794;48.348;7.878;2022-12-10T16:38:31;98495.00;;;3.70
68012;BMP180;54794;48.348;7.878;2022-12-10T16:40:58;98489.00;;;3.70
68012;BMP180;54794;48.348;7.878;2022-12-10T16:43:27;98498.00;;;3.50
68012;BMP180;54794;48.348;7.878;2022-12-10T16:45:54;98506.00;;;3.70
68012;BMP180;54794;48.348;7.878;2022-12-10T16:48:22;98503.00;;;3.60
68012;BMP180;54794;48.348;7.878;2022-12-10T16:50:51;98507.00;;;3.20
68012;BMP180;54794;48.348;7.878;2022-12-10T16:53:24;98511.00;;;3.50
68012;BMP180;54794;48.348;7.878;2022-12-10T16:55:53;98513.00;;;3.10
68012;BMP180;54794;48.348;7.878;2022-12-10T16:58:20;98510.00;;;3.30
68012;BMP180;54794;48.348;7.878;2022-12-10T17:00:48;98507.00;;;3.40
68012;BMP180;54794;48.348;7.878;2022-12-10T17:03:18;98505.00;;;3.60
68012;BMP180;54794;48.348;7.878;2022-12-10T17:08:17;98537.00;;;2.80
68012;BMP180;54794;48.348;7.878;2022-12-10T17:10:45;98536.00;;;3.00
68012;BMP180;54794;48.348;7.878;2022-12-10T17:13:31;98537.00;;;2.90
68012;BMP180;54794;48.348;7.878;2022-12-10T17:15:59;98539.00;;;3.30
68012;BMP180;54794;48.348;7.878;2022-12-10T17:18:26;98537.00;;;3.50
68012;BMP180;54794;48.348;7.878;2022-12-10T17:20:53;98530.00;;;3.60
68012;BMP180;54794;48.348;7.878;2022-12-10T17:23:34;98545.00;;;3.20